Portada
METAR-TAF:

METAR-TAF

Aeropuertos :

Deming, Nuevo México, Estados Unidos

latitud: 32-15-44N, longitud: 107-43-14W, altitud: 1315 m

Observación

El informe se hizo hace 51 minutos, a las 09:53 UTC
Viento 6 kt del noreste
Temperatura 4°C
Humedad 75%
Presión 1020 hPa
Visibilidad: 16.1 km
Cielo despejado

METAR: KDMN 190953Z AUTO 05006KT 10SM CLR 04/00 A3011 RMK AO2 SLP156 T00440000

Hora: 03:44 (10:44 UTC)

Pronóstico

El informe se hizo hace 5 horas y 1 minutos, a las 05:43 UTC
Pronóstico válido del 19 a las 06 UTC al 20 a las 06 UTC
Viento 8 kt del sur
Visibilidad: 10 km
Cielo nuboso a una altura de 25000 ft
A partir de las 19 a las 1800 UTC
Viento 7 kt del sur
Visibilidad: 10 km
Cielo nuboso a una altura de 25000 ft
A partir de las 20 a las 0000 UTC
Viento 7 kt del oeste
Visibilidad: 10 km
Cielo nuboso a una altura de 25000 ft

TAF: KDMN 190543Z 1906/2006 18008KT P6SM BKN250 FM191800 19007KT P6SM BKN250 FM200000 27007KT P6SM BKN250

Observaciones y pronósticos meteorológicos de más de 4000 aeropuertos (mensajes METAR y TAF).

Los puntos amarillos y rojos representan las estaciones disponibles.

Ponga el ratón en el punto deseado para ver el nombre de la estación.

Haga clic para ver las observaciones y los pronósticos meteorológicos.

Para cambiar el mapa : haga clic en los botones verdes con una cruz de color negro para hacer un zoom, en el botón verde con un guión para alejar o en las flechas verdes para mapas adyacentes.


METAR-TAF: